createdAt,value
2023-05-03T00:00:10.559Z,24.27
2023-05-03T00:02:40.534Z,24.36
2023-05-03T00:05:12.381Z,24.46
2023-05-03T00:07:40.354Z,23.97
2023-05-03T00:10:08.756Z,23.99
2023-05-03T00:12:35.292Z,24.25
2023-05-03T00:15:01.856Z,24.64
2023-05-03T00:17:28.473Z,24.59
2023-05-03T00:19:56.251Z,24.30
2023-05-03T00:22:23.343Z,24.21
2023-05-03T00:24:52.785Z,24.35
2023-05-03T00:27:19.623Z,24.87
2023-05-03T00:29:46.995Z,24.53
2023-05-03T00:32:13.586Z,24.82
2023-05-03T00:34:40.125Z,24.55
2023-05-03T00:37:06.640Z,24.75
2023-05-03T00:39:33.977Z,25.12
2023-05-03T00:42:02.277Z,24.86
2023-05-03T00:44:29.931Z,24.69
2023-05-03T00:46:57.256Z,25.03
2023-05-03T00:49:26.931Z,25.17
2023-05-03T00:51:54.542Z,24.89
2023-05-03T00:54:21.790Z,24.74
2023-05-03T00:56:51.914Z,24.66
2023-05-03T00:59:20.032Z,24.75
2023-05-03T01:01:51.827Z,25.12
2023-05-03T01:04:20.120Z,25.03
2023-05-03T01:07:10.359Z,25.02
2023-05-03T01:09:51.998Z,24.89
2023-05-03T01:12:40.832Z,25.12
2023-05-03T01:15:37.126Z,25.40
2023-05-03T01:18:12.262Z,25.25
2023-05-03T01:20:44.090Z,25.16
2023-05-03T01:23:32.149Z,25.31
2023-05-03T01:25:58.703Z,25.46
2023-05-03T01:28:25.444Z,25.18
2023-05-03T01:30:54.068Z,25.29
2023-05-03T01:33:36.819Z,25.27
2023-05-03T01:36:26.484Z,25.36
2023-05-03T01:38:53.824Z,25.20
2023-05-03T01:41:23.108Z,25.08
2023-05-03T01:43:52.090Z,25.02
2023-05-03T01:46:18.615Z,25.10
2023-05-03T01:48:45.193Z,24.98
2023-05-03T01:51:11.945Z,24.74
2023-05-03T01:53:38.548Z,25.02
2023-05-03T01:56:05.559Z,25.14
2023-05-03T01:58:32.915Z,24.94
2023-05-03T02:00:59.561Z,24.49
2023-05-03T02:03:26.688Z,24.77
2023-05-03T02:05:53.750Z,24.44
2023-05-03T02:08:20.855Z,24.56
2023-05-03T02:10:47.388Z,24.58
2023-05-03T02:13:17.011Z,24.84
2023-05-03T02:15:43.641Z,24.89
2023-05-03T02:18:10.453Z,24.74
2023-05-03T02:20:38.043Z,24.81
2023-05-03T02:23:04.943Z,24.66
2023-05-03T02:25:31.921Z,24.89
2023-05-03T02:27:58.441Z,25.02
2023-05-03T02:30:25.255Z,24.82
2023-05-03T02:32:51.872Z,24.55
2023-05-03T02:35:19.963Z,24.73
2023-05-03T02:37:46.585Z,24.26
2023-05-03T02:40:13.148Z,24.34
2023-05-03T02:42:41.589Z,24.85
2023-05-03T02:45:08.995Z,24.59
2023-05-03T02:47:35.589Z,25.08
2023-05-03T02:50:02.353Z,24.70
2023-05-03T02:52:32.220Z,24.34
2023-05-03T02:54:58.833Z,24.78
2023-05-03T02:57:25.593Z,24.90
2023-05-03T02:59:52.301Z,25.05
2023-05-03T03:02:19.548Z,25.05
2023-05-03T03:04:46.111Z,24.37
2023-05-03T03:07:12.675Z,24.82
2023-05-03T03:09:39.303Z,24.58
2023-05-03T03:12:06.018Z,24.48
2023-05-03T03:14:33.880Z,24.26
2023-05-03T03:17:02.573Z,24.81
2023-05-03T03:19:29.594Z,24.43
2023-05-03T03:21:56.211Z,24.84
2023-05-03T03:24:24.618Z,24.74
2023-05-03T03:26:52.578Z,24.56
2023-05-03T03:29:19.549Z,24.83
2023-05-03T03:31:46.243Z,24.26
2023-05-03T03:34:14.553Z,24.66
2023-05-03T03:36:41.690Z,24.34
2023-05-03T03:39:08.330Z,24.68
2023-05-03T03:41:36.954Z,23.96
2023-05-03T03:44:04.321Z,24.16
2023-05-03T03:46:31.020Z,24.37
2023-05-03T03:48:58.949Z,24.60
2023-05-03T03:51:27.869Z,24.32
2023-05-03T03:53:54.621Z,24.68
2023-05-03T03:56:25.225Z,24.26
2023-05-03T03:58:53.025Z,24.42
2023-05-03T04:01:19.900Z,24.13
2023-05-03T04:03:49.850Z,24.71
2023-05-03T04:06:17.093Z,24.75
2023-05-03T04:08:43.675Z,24.88
2023-05-03T04:11:15.297Z,24.43
2023-05-03T04:13:52.968Z,24.43
2023-05-03T04:16:20.025Z,24.52
2023-05-03T04:18:46.932Z,24.42
2023-05-03T04:21:13.846Z,24.36
2023-05-03T04:23:41.757Z,24.08
2023-05-03T04:26:17.219Z,24.38
2023-05-03T04:28:55.093Z,24.27
2023-05-03T04:31:22.668Z,24.51
2023-05-03T04:33:52.572Z,24.95
2023-05-03T04:36:19.156Z,24.75
2023-05-03T04:38:47.730Z,24.75
2023-05-03T04:41:16.108Z,24.33
2023-05-03T04:43:43.780Z,24.53
2023-05-03T04:46:11.563Z,24.23
2023-05-03T04:48:41.110Z,24.77
2023-05-03T04:51:08.192Z,24.36
2023-05-03T04:53:34.926Z,24.46
2023-05-03T04:56:08.023Z,24.13
2023-05-03T04:58:37.859Z,24.51
2023-05-03T05:01:05.662Z,24.47
2023-05-03T05:03:32.794Z,24.62
2023-05-03T05:06:03.895Z,24.16
2023-05-03T05:08:32.004Z,24.32
2023-05-03T05:10:58.752Z,23.97
2023-05-03T05:13:29.962Z,24.34
2023-05-03T05:15:56.939Z,24.15
2023-05-03T05:18:23.718Z,24.13
2023-05-03T05:20:52.421Z,24.51
2023-05-03T05:23:19.945Z,24.21
2023-05-03T05:25:47.825Z,24.23
2023-05-03T05:28:14.571Z,23.64
2023-05-03T05:30:41.532Z,23.17
2023-05-03T05:33:08.337Z,23.72
2023-05-03T05:35:35.560Z,24.39
2023-05-03T05:38:02.866Z,24.11
2023-05-03T05:40:30.991Z,23.00
2023-05-03T05:42:59.638Z,23.19
2023-05-03T05:45:27.957Z,23.28
2023-05-03T05:47:56.520Z,23.09
2023-05-03T05:50:23.065Z,23.40
2023-05-03T05:52:55.805Z,23.14
2023-05-03T05:55:24.883Z,22.78
2023-05-03T05:57:51.913Z,22.92
2023-05-03T06:00:22.824Z,22.33
2023-05-03T06:02:49.939Z,22.02
2023-05-03T06:05:20.649Z,21.55
2023-05-03T06:07:47.452Z,21.58
2023-05-03T06:10:14.223Z,21.68
2023-05-03T06:12:45.331Z,21.39
2023-05-03T06:15:17.331Z,21.32
2023-05-03T06:17:44.330Z,21.32
2023-05-03T06:20:11.910Z,20.97
2023-05-03T06:22:39.598Z,21.21
2023-05-03T06:25:07.507Z,20.50
2023-05-03T06:27:34.157Z,20.26
2023-05-03T06:30:01.002Z,19.56
2023-05-03T06:32:28.710Z,19.65
2023-05-03T06:34:55.763Z,19.63
2023-05-03T06:37:22.856Z,19.11
2023-05-03T06:39:50.479Z,18.99
2023-05-03T06:42:18.890Z,18.58
2023-05-03T06:44:46.058Z,19.21
2023-05-03T06:47:13.382Z,18.74
2023-05-03T06:49:40.149Z,17.74
2023-05-03T06:52:09.505Z,15.69
2023-05-03T06:54:40.399Z,15.64
2023-05-03T06:57:07.629Z,15.05
2023-05-03T06:59:34.148Z,14.52
2023-05-03T07:02:01.100Z,13.57
2023-05-03T07:04:27.974Z,14.75
2023-05-03T07:06:56.740Z,14.13
2023-05-03T07:09:32.072Z,13.76
2023-05-03T07:12:08.652Z,13.37
2023-05-03T07:14:35.548Z,13.64
2023-05-03T07:17:02.295Z,14.33
2023-05-03T07:19:29.972Z,15.18
2023-05-03T07:21:56.936Z,16.71
2023-05-03T07:24:25.670Z,17.58
2023-05-03T07:26:55.177Z,16.16
2023-05-03T07:29:21.873Z,16.56
2023-05-03T07:31:48.767Z,15.69
2023-05-03T07:34:16.566Z,16.23
2023-05-03T07:36:43.181Z,16.82
2023-05-03T07:39:09.893Z,17.27
2023-05-03T07:41:36.980Z,16.70
2023-05-03T07:44:03.676Z,16.86
2023-05-03T07:46:34.804Z,16.41
2023-05-03T07:49:03.878Z,17.83
2023-05-03T07:51:35.358Z,18.84
2023-05-03T07:54:02.152Z,19.69
2023-05-03T07:56:29.331Z,19.98
2023-05-03T07:59:07.500Z,19.19
2023-05-03T08:01:35.489Z,19.27
2023-05-03T08:04:02.285Z,20.12
2023-05-03T08:06:29.278Z,19.75
2023-05-03T08:08:56.149Z,19.50
2023-05-03T08:11:22.689Z,19.92
2023-05-03T08:13:49.532Z,20.04
2023-05-03T08:16:16.460Z,18.56
2023-05-03T08:18:43.399Z,18.05
2023-05-03T08:21:10.391Z,17.21
2023-05-03T08:23:37.248Z,16.73
2023-05-03T08:26:04.281Z,17.15
2023-05-03T08:28:31.196Z,16.12
2023-05-03T08:30:58.256Z,15.53
2023-05-03T08:33:25.137Z,15.60
2023-05-03T08:35:52.534Z,16.15
2023-05-03T08:38:19.063Z,15.40
2023-05-03T08:40:48.859Z,16.91
2023-05-03T08:43:19.799Z,17.49
2023-05-03T08:45:46.801Z,16.91
2023-05-03T08:48:14.662Z,16.71
2023-05-03T08:50:44.343Z,17.17
2023-05-03T08:53:11.732Z,17.39
2023-05-03T08:55:38.942Z,16.85
2023-05-03T08:58:10.653Z,18.45
2023-05-03T09:00:38.357Z,17.06
2023-05-03T09:03:05.114Z,17.02
2023-05-03T09:05:33.984Z,17.39
2023-05-03T09:08:12.517Z,17.12
2023-05-03T09:10:41.214Z,16.14
2023-05-03T09:13:08.672Z,17.06
2023-05-03T09:15:36.176Z,16.66
2023-05-03T09:18:16.066Z,16.46
2023-05-03T09:20:51.560Z,16.33
2023-05-03T09:23:31.500Z,17.70
2023-05-03T09:25:59.535Z,17.81
2023-05-03T09:28:26.873Z,17.66
2023-05-03T09:31:06.630Z,17.45
2023-05-03T09:33:33.684Z,17.66
2023-05-03T09:36:02.633Z,17.08
2023-05-03T09:38:31.316Z,17.21
2023-05-03T09:40:58.347Z,17.08
2023-05-03T09:43:25.709Z,18.08
2023-05-03T09:45:52.440Z,17.10
2023-05-03T09:48:23.466Z,17.25
2023-05-03T09:50:51.154Z,17.59
2023-05-03T09:53:21.339Z,18.68
2023-05-03T09:55:51.155Z,17.96
2023-05-03T09:58:18.623Z,18.36
2023-05-03T10:00:46.430Z,18.08
2023-05-03T10:03:20.478Z,18.32
2023-05-03T10:05:49.388Z,17.28
2023-05-03T10:08:26.964Z,17.85
2023-05-03T10:10:54.186Z,17.08
2023-05-03T10:13:24.449Z,18.15
2023-05-03T10:15:59.598Z,17.35
2023-05-03T10:18:31.933Z,17.99
2023-05-03T10:21:05.916Z,18.00
2023-05-03T10:23:32.437Z,17.68
2023-05-03T10:26:09.546Z,18.77
2023-05-03T10:28:39.350Z,18.60
2023-05-03T10:31:05.905Z,19.38
2023-05-03T10:33:35.184Z,18.23
2023-05-03T10:36:07.351Z,18.79
2023-05-03T10:38:34.085Z,18.89
2023-05-03T10:41:03.540Z,17.79
2023-05-03T10:43:32.866Z,18.92
2023-05-03T10:46:00.860Z,18.17
2023-05-03T10:48:28.540Z,19.19
2023-05-03T10:50:57.212Z,18.38
2023-05-03T10:53:43.340Z,19.22
2023-05-03T10:56:11.758Z,19.83
2023-05-03T10:58:46.912Z,18.87
2023-05-03T11:01:16.232Z,19.04
2023-05-03T11:04:08.338Z,18.61
2023-05-03T11:06:41.201Z,18.07
2023-05-03T11:09:09.770Z,17.54
2023-05-03T11:11:39.773Z,18.92
2023-05-03T11:14:08.273Z,20.08
2023-05-03T11:16:36.674Z,20.02
2023-05-03T11:19:03.548Z,18.93
2023-05-03T11:21:31.306Z,20.02
2023-05-03T11:23:59.390Z,19.77
2023-05-03T11:26:26.606Z,20.56
2023-05-03T11:28:54.239Z,19.11
2023-05-03T11:31:22.529Z,19.47
2023-05-03T11:33:50.807Z,18.40
2023-05-03T11:36:17.682Z,18.50
2023-05-03T11:38:45.271Z,17.58
2023-05-03T11:41:14.593Z,18.15
2023-05-03T11:43:43.256Z,18.44
2023-05-03T11:46:10.753Z,18.02
2023-05-03T11:48:41.424Z,17.01
2023-05-03T11:51:11.583Z,17.96
2023-05-03T11:53:39.851Z,17.51
2023-05-03T11:56:20.660Z,17.89
2023-05-03T11:58:54.467Z,17.67
2023-05-03T12:01:23.100Z,19.08
2023-05-03T12:03:54.147Z,17.28
2023-05-03T12:06:22.224Z,17.40
2023-05-03T12:08:50.140Z,16.45
2023-05-03T12:11:17.971Z,16.92
2023-05-03T12:13:45.450Z,17.69
2023-05-03T12:16:15.666Z,19.01
2023-05-03T12:18:58.578Z,19.26
2023-05-03T12:21:46.957Z,19.54
2023-05-03T12:24:20.760Z,19.81
2023-05-03T12:26:48.910Z,19.33
2023-05-03T12:29:19.565Z,18.79
2023-05-03T12:31:49.090Z,19.41
2023-05-03T12:34:32.373Z,18.94
2023-05-03T12:37:04.676Z,18.70
2023-05-03T12:39:32.874Z,18.94
2023-05-03T12:44:34.456Z,18.74
2023-05-03T12:47:02.436Z,18.45
2023-05-03T12:49:29.518Z,18.22
2023-05-03T12:52:18.495Z,19.41
2023-05-03T12:55:02.799Z,20.08
2023-05-03T12:57:31.256Z,19.56
2023-05-03T13:00:03.192Z,19.92
2023-05-03T13:05:08.085Z,19.33
2023-05-03T13:07:43.241Z,20.15
2023-05-03T13:12:40.801Z,19.23
2023-05-03T13:15:08.832Z,19.15
2023-05-03T13:17:35.521Z,18.42
2023-05-03T13:20:02.457Z,18.93
2023-05-03T13:22:30.104Z,17.90
2023-05-03T13:24:56.617Z,17.52
2023-05-03T13:27:23.595Z,17.23
2023-05-03T13:29:50.168Z,17.22
2023-05-03T13:32:17.424Z,16.43
2023-05-03T13:34:44.093Z,17.21
2023-05-03T13:37:11.781Z,18.58
2023-05-03T13:39:38.673Z,19.05
2023-05-03T13:42:05.332Z,18.59
2023-05-03T13:44:31.932Z,18.30
2023-05-03T13:46:58.706Z,17.79
2023-05-03T13:49:25.455Z,17.22
2023-05-03T13:51:52.142Z,18.87
2023-05-03T13:54:18.888Z,19.85
2023-05-03T13:56:46.892Z,20.39
2023-05-03T13:59:14.067Z,19.38
2023-05-03T14:01:42.949Z,20.70
2023-05-03T14:04:12.558Z,20.10
2023-05-03T14:06:41.407Z,20.43
2023-05-03T14:09:08.822Z,19.05
2023-05-03T14:11:35.558Z,19.99
2023-05-03T14:14:02.370Z,20.46
2023-05-03T14:18:58.672Z,20.28
2023-05-03T14:21:25.458Z,19.11
2023-05-03T14:23:53.006Z,18.70
2023-05-03T14:26:22.214Z,19.73
2023-05-03T14:28:48.952Z,18.58
2023-05-03T14:31:16.429Z,18.59
2023-05-03T14:33:43.051Z,19.66
2023-05-03T14:36:09.793Z,18.98
2023-05-03T14:38:37.291Z,19.41
2023-05-03T14:41:04.015Z,20.69
2023-05-03T14:43:31.045Z,19.41
2023-05-03T14:45:57.556Z,19.92
2023-05-03T14:48:24.126Z,20.89
2023-05-03T14:50:51.352Z,20.71
2023-05-03T14:53:18.786Z,20.93
2023-05-03T14:55:46.076Z,20.10
2023-05-03T14:58:16.032Z,20.24
2023-05-03T15:00:42.746Z,20.72
2023-05-03T15:03:13.939Z,20.16
2023-05-03T15:05:46.535Z,19.86
2023-05-03T15:08:22.165Z,19.68
2023-05-03T15:10:49.096Z,19.02
2023-05-03T15:13:16.356Z,18.86
2023-05-03T15:15:44.147Z,19.63
2023-05-03T15:18:11.620Z,18.94
2023-05-03T15:20:38.390Z,19.05
2023-05-03T15:23:05.168Z,18.80
2023-05-03T15:25:32.497Z,18.45
2023-05-03T15:28:02.641Z,19.77
2023-05-03T15:30:30.671Z,20.77
2023-05-03T15:32:57.982Z,20.51
2023-05-03T15:35:24.643Z,21.03
2023-05-03T15:37:51.398Z,20.79
2023-05-03T15:40:18.551Z,21.33
2023-05-03T15:42:45.099Z,19.96
2023-05-03T15:45:12.975Z,20.25
2023-05-03T15:47:39.620Z,20.36
2023-05-03T15:50:07.094Z,19.82
2023-05-03T15:52:34.786Z,19.78
2023-05-03T15:55:01.480Z,20.88
2023-05-03T15:57:30.108Z,20.49
2023-05-03T15:59:57.008Z,21.01
2023-05-03T16:02:24.475Z,21.13
2023-05-03T16:04:51.183Z,20.80
2023-05-03T16:07:17.845Z,20.70
2023-05-03T16:09:44.658Z,20.27
2023-05-03T16:12:12.313Z,20.53
2023-05-03T16:14:39.080Z,20.11
2023-05-03T16:17:06.112Z,20.53
2023-05-03T16:19:32.729Z,20.64
2023-05-03T16:21:59.782Z,20.64
2023-05-03T16:24:26.329Z,20.89
2023-05-03T16:26:53.001Z,21.22
2023-05-03T16:29:19.911Z,20.29
2023-05-03T16:31:46.992Z,20.24
2023-05-03T16:34:14.197Z,20.57
2023-05-03T16:36:43.085Z,20.40
2023-05-03T16:39:13.852Z,21.21
2023-05-03T16:41:41.322Z,20.80
2023-05-03T16:44:08.682Z,21.13
2023-05-03T16:46:36.907Z,20.73
2023-05-03T16:49:04.544Z,20.44
2023-05-03T16:51:31.736Z,21.25
2023-05-03T16:53:59.051Z,21.10
2023-05-03T16:56:26.292Z,21.00
2023-05-03T16:58:53.257Z,20.99
2023-05-03T17:01:19.857Z,21.02
2023-05-03T17:03:46.541Z,21.05
2023-05-03T17:06:13.628Z,22.19
2023-05-03T17:08:40.188Z,21.72
2023-05-03T17:11:09.269Z,21.75
2023-05-03T17:13:36.531Z,21.36
2023-05-03T17:16:08.714Z,21.39
2023-05-03T17:18:38.775Z,21.90
2023-05-03T17:21:06.903Z,21.47
2023-05-03T17:23:36.085Z,21.20
2023-05-03T17:26:04.057Z,20.61
2023-05-03T17:28:31.689Z,21.42
2023-05-03T17:30:59.387Z,20.98
2023-05-03T17:33:26.447Z,21.94
2023-05-03T17:35:53.909Z,21.73
2023-05-03T17:38:20.777Z,21.37
2023-05-03T17:40:47.855Z,22.65
2023-05-03T17:43:17.470Z,23.21
2023-05-03T17:45:47.403Z,22.74
2023-05-03T17:48:14.496Z,23.16
2023-05-03T17:50:43.002Z,23.90
2023-05-03T17:53:09.905Z,23.98
2023-05-03T17:55:38.345Z,23.07
2023-05-03T17:58:06.333Z,22.66
2023-05-03T18:00:34.012Z,22.74
2023-05-03T18:03:00.994Z,22.65
2023-05-03T18:05:27.930Z,23.81
2023-05-03T18:07:54.678Z,24.49
2023-05-03T18:10:21.377Z,23.63
2023-05-03T18:12:48.064Z,23.40
2023-05-03T18:15:15.491Z,23.16
2023-05-03T18:17:42.727Z,22.82
2023-05-03T18:20:10.200Z,23.88
2023-05-03T18:22:37.683Z,23.19
2023-05-03T18:25:07.259Z,22.87
2023-05-03T18:27:39.878Z,22.91
2023-05-03T18:30:07.442Z,22.84
2023-05-03T18:32:34.680Z,22.48
2023-05-03T18:35:03.490Z,22.74
2023-05-03T18:37:30.081Z,22.39
2023-05-03T18:39:57.369Z,22.67
2023-05-03T18:42:23.964Z,22.55
2023-05-03T18:44:50.663Z,22.60
2023-05-03T18:47:20.723Z,23.15
2023-05-03T18:49:51.858Z,22.80
2023-05-03T18:52:23.092Z,22.77
2023-05-03T18:54:50.260Z,23.21
2023-05-03T18:57:16.880Z,23.38
2023-05-03T18:59:56.616Z,23.05
2023-05-03T19:02:30.246Z,22.57
2023-05-03T19:04:56.944Z,23.32
2023-05-03T19:07:23.734Z,22.72
2023-05-03T19:09:57.779Z,22.73
2023-05-03T19:12:24.504Z,22.73
2023-05-03T19:14:51.109Z,22.77
2023-05-03T19:17:17.808Z,23.54
2023-05-03T19:19:44.468Z,22.94
2023-05-03T19:22:11.225Z,22.90
2023-05-03T19:24:43.625Z,23.33
2023-05-03T19:27:14.204Z,23.09
2023-05-03T19:29:40.731Z,23.32
2023-05-03T19:32:07.311Z,24.16
2023-05-03T19:34:35.845Z,24.74
2023-05-03T19:37:02.416Z,24.42
2023-05-03T19:39:32.692Z,24.74
2023-05-03T19:41:59.596Z,25.44
2023-05-03T19:44:28.898Z,25.50
2023-05-03T19:46:55.623Z,26.27
2023-05-03T19:49:23.930Z,25.46
2023-05-03T19:51:54.015Z,25.69
2023-05-03T19:54:20.951Z,26.38
2023-05-03T19:56:48.681Z,25.20
2023-05-03T19:59:15.615Z,25.29
2023-05-03T20:01:43.001Z,25.48
2023-05-03T20:04:09.606Z,25.44
2023-05-03T20:06:36.187Z,25.65
2023-05-03T20:09:04.419Z,25.18
2023-05-03T20:11:30.997Z,24.88
2023-05-03T20:13:57.516Z,24.98
2023-05-03T20:16:27.425Z,24.58
2023-05-03T20:18:54.107Z,24.73
2023-05-03T20:21:20.971Z,25.40
2023-05-03T20:23:49.168Z,25.47
2023-05-03T20:26:16.154Z,26.08
2023-05-03T20:28:43.748Z,26.50
2023-05-03T20:31:11.188Z,26.88
2023-05-03T20:33:37.823Z,27.01
2023-05-03T20:36:04.967Z,27.31
2023-05-03T20:38:32.020Z,26.91
2023-05-03T20:40:58.547Z,27.33
2023-05-03T20:43:25.367Z,27.89
2023-05-03T20:45:53.270Z,28.28
2023-05-03T20:48:20.581Z,27.78
2023-05-03T20:50:47.394Z,26.94
2023-05-03T20:53:14.242Z,27.96
2023-05-03T20:55:40.842Z,27.46
2023-05-03T20:58:07.393Z,27.30
2023-05-03T21:00:33.979Z,29.20
2023-05-03T21:03:00.817Z,28.09
2023-05-03T21:05:27.426Z,29.32
2023-05-03T21:07:54.013Z,28.59
2023-05-03T21:10:21.091Z,29.04
2023-05-03T21:12:47.903Z,28.68
2023-05-03T21:15:14.489Z,28.76
2023-05-03T21:17:41.151Z,28.96
2023-05-03T21:20:08.525Z,28.86
2023-05-03T21:22:35.146Z,28.85
2023-05-03T21:25:02.222Z,28.50
2023-05-03T21:27:28.879Z,28.46
2023-05-03T21:29:55.793Z,28.08
2023-05-03T21:32:22.355Z,27.77
2023-05-03T21:34:49.915Z,27.81
2023-05-03T21:37:16.841Z,27.64
2023-05-03T21:39:57.747Z,27.68
2023-05-03T21:42:27.877Z,27.32
2023-05-03T21:44:54.416Z,27.13
2023-05-03T21:47:21.513Z,27.31
2023-05-03T21:49:48.102Z,26.65
2023-05-03T21:52:14.655Z,27.26
2023-05-03T21:54:41.185Z,27.43
2023-05-03T21:57:07.703Z,27.01
2023-05-03T21:59:34.833Z,26.70
2023-05-03T22:02:01.486Z,27.41
2023-05-03T22:04:28.073Z,27.79
2023-05-03T22:06:54.821Z,27.34
2023-05-03T22:09:21.714Z,26.52
2023-05-03T22:11:48.269Z,27.00
2023-05-03T22:14:15.048Z,26.81
2023-05-03T22:16:43.304Z,28.20
2023-05-03T22:19:10.116Z,27.55
2023-05-03T22:21:36.630Z,27.41
2023-05-03T22:24:04.287Z,27.53
2023-05-03T22:26:31.182Z,27.73
2023-05-03T22:28:57.728Z,27.12
2023-05-03T22:31:24.719Z,27.67
2023-05-03T22:33:51.367Z,28.30
2023-05-03T22:36:17.964Z,28.51
2023-05-03T22:38:44.516Z,28.67
2023-05-03T22:41:11.229Z,28.73
2023-05-03T22:43:37.842Z,27.95
2023-05-03T22:46:04.550Z,28.58
2023-05-03T22:48:32.448Z,28.07
2023-05-03T22:50:59.705Z,28.54
2023-05-03T22:53:26.317Z,28.82
2023-05-03T22:56:06.477Z,28.93
2023-05-03T22:58:34.345Z,28.39
2023-05-03T23:01:01.571Z,28.57
2023-05-03T23:03:28.662Z,27.60
2023-05-03T23:05:55.704Z,27.37
2023-05-03T23:08:22.637Z,28.52
2023-05-03T23:10:49.319Z,28.19
2023-05-03T23:13:16.493Z,27.94
2023-05-03T23:15:43.115Z,27.60
2023-05-03T23:18:09.663Z,27.96
2023-05-03T23:20:36.705Z,28.16
2023-05-03T23:23:03.308Z,26.95
2023-05-03T23:25:30.160Z,26.99
2023-05-03T23:27:56.750Z,27.18
2023-05-03T23:30:24.216Z,26.57
2023-05-03T23:32:51.401Z,26.85
2023-05-03T23:35:20.754Z,26.27
2023-05-03T23:37:47.257Z,26.17
2023-05-03T23:40:14.174Z,25.71
2023-05-03T23:42:41.326Z,25.79
2023-05-03T23:45:09.528Z,25.74
2023-05-03T23:47:36.736Z,25.67
2023-05-03T23:50:03.814Z,25.51
2023-05-03T23:52:30.674Z,25.46
2023-05-03T23:54:57.209Z,25.72
2023-05-03T23:57:23.749Z,25.81
2023-05-03T23:59:50.974Z,25.48
